Terminal Aerodrome Forecast
Issued by NWS

Home | Current Version | Previous Version | Text Only | Print | Product List | Glossary On
Versions: 1 2 3 4 5 6 7 8 9 10 11 12 13 14 15 16 17 18 19 20 21
000
FTUS43 KEAX 271733
TAFSTJ
TAF
KSTJ 271733Z 2718/2818 12011KT P6SM VCTS SCT060CB BKN080
      TEMPO 2718/2719 TSRA
     FM271900 14011KT P6SM SCT090
     FM281200 19008KT P6SM VCTS SCT050CB BKN150
     FM281400 20014G20KT P6SM VCTS SCT050CB BKN150=

USA.gov is the U.S. government's official web portal to all federal, state and local government web resources and services.